IGO466 VABB-VAUD
Flight info
| Callsign | IGO466 |
|---|---|
| Flight time | 0h 57m |
| Altitude | 37000 |
| Route | ANOLI2A ISRIS G208 APANO A347 UUD |
| Aircraft | A20N/M-SDE2E3FGHIRWXY/LB1 |
Departure
| Time | 2026-05-04 22:53 |
|---|---|
| Airport | Chhatrapati Shivaji Maharaj International Airport (VABB) |
Arrival
| Time | 2026-05-04 23:51 |
|---|---|
| Airport | Maharana Pratap Airport (VAUD) |
| Time | Latitude | Longitude | Altitude | Speed | Heading |
|---|---|---|---|---|---|
| 2026-05-04 22:35 | 19.09157 | 72.85313 | 49 ft | 0 kts | 359° |
| 2026-05-04 22:44 | 19.09141 | 72.85313 | 49 ft | 2 kts | 1° |
| 2026-05-04 22:45 | 19.09125 | 72.85312 | 49 ft | 2 kts | 4° |
| 2026-05-04 22:45 | 19.09093 | 72.85303 | 44 ft | 2 kts | 63° |
| 2026-05-04 22:45 | 19.09090 | 72.85290 | 45 ft | 1 kts | 90° |
| 2026-05-04 22:46 | 19.09090 | 72.85288 | 45 ft | 0 kts | 89° |
| 2026-05-04 22:46 | 19.09090 | 72.85289 | 45 ft | 0 kts | 89° |
| 2026-05-04 22:46 | 19.09090 | 72.85297 | 44 ft | 3 kts | 89° |
| 2026-05-04 22:47 | 19.09090 | 72.85330 | 49 ft | 6 kts | 90° |
| 2026-05-04 22:47 | 19.09090 | 72.85387 | 49 ft | 9 kts | 89° |
| 2026-05-04 22:47 | 19.09092 | 72.85467 | 49 ft | 12 kts | 88° |
| 2026-05-04 22:47 | 19.09092 | 72.85567 | 49 ft | 15 kts | 95° |
| 2026-05-04 22:48 | 19.09026 | 72.85628 | 49 ft | 9 kts | 118° |
| 2026-05-04 22:48 | 19.09027 | 72.85694 | 48 ft | 11 kts | 90° |
| 2026-05-04 22:48 | 19.09029 | 72.85783 | 48 ft | 13 kts | 88° |
| 2026-05-04 22:48 | 19.09031 | 72.85893 | 48 ft | 16 kts | 89° |
| 2026-05-04 22:49 | 19.09033 | 72.86022 | 48 ft | 19 kts | 89° |
| 2026-05-04 22:49 | 19.09035 | 72.86168 | 48 ft | 21 kts | 89° |
| 2026-05-04 22:49 | 19.09037 | 72.86329 | 48 ft | 20 kts | 88° |
| 2026-05-04 22:49 | 19.09039 | 72.86474 | 48 ft | 20 kts | 90° |
| 2026-05-04 22:50 | 19.09041 | 72.86629 | 49 ft | 22 kts | 89° |
| 2026-05-04 22:50 | 19.09043 | 72.86795 | 50 ft | 23 kts | 88° |
| 2026-05-04 22:50 | 19.09046 | 72.86974 | 50 ft | 25 kts | 90° |
| 2026-05-04 22:50 | 19.09048 | 72.87142 | 49 ft | 14 kts | 88° |
| 2026-05-04 22:51 | 19.09049 | 72.87252 | 49 ft | 16 kts | 90° |
| 2026-05-04 22:51 | 19.09051 | 72.87338 | 49 ft | 18 kts | 89° |
| 2026-05-04 22:51 | 19.09053 | 72.87531 | 49 ft | 21 kts | 89° |
| 2026-05-04 22:51 | 19.09055 | 72.87641 | 48 ft | 23 kts | 89° |
| 2026-05-04 22:52 | 19.09054 | 72.87770 | 46 ft | 10 kts | 102° |
| 2026-05-04 22:52 | 19.08996 | 72.87807 | 48 ft | 11 kts | 179° |
| 2026-05-04 22:52 | 19.08913 | 72.87795 | 48 ft | 13 kts | 211° |
| 2026-05-04 22:52 | 19.08885 | 72.87715 | 47 ft | 11 kts | 269° |
| 2026-05-04 22:53 | 19.08879 | 72.87470 | 49 ft | 68 kts | 268° |
| 2026-05-04 22:53 | 19.08869 | 72.86738 | 50 ft | 128 kts | 269° |
| 2026-05-04 22:53 | 19.08851 | 72.85637 | 168 ft | 163 kts | 266° |
| 2026-05-04 22:53 | 19.08827 | 72.84423 | 733 ft | 170 kts | 268° |
| 2026-05-04 22:54 | 19.08826 | 72.83184 | 1474 ft | 164 kts | 267° |
| 2026-05-04 22:54 | 19.08822 | 72.81999 | 2196 ft | 166 kts | 266° |
| 2026-05-04 22:54 | 19.08800 | 72.80702 | 2709 ft | 185 kts | 267° |
| 2026-05-04 22:54 | 19.08984 | 72.79281 | 3154 ft | 211 kts | 293° |
| 2026-05-04 22:55 | 19.09988 | 72.78049 | 3689 ft | 236 kts | 325° |
| 2026-05-04 22:55 | 19.11604 | 72.77433 | 4225 ft | 262 kts | 348° |
| 2026-05-04 22:55 | 19.13474 | 72.77214 | 4895 ft | 275 kts | 353° |
| 2026-05-04 22:55 | 19.15385 | 72.77025 | 5827 ft | 275 kts | 350° |
| 2026-05-04 22:56 | 19.17278 | 72.76756 | 6731 ft | 275 kts | 347° |
| 2026-05-04 22:56 | 19.19176 | 72.76403 | 7523 ft | 279 kts | 346° |
| 2026-05-04 22:56 | 19.21094 | 72.75995 | 8339 ft | 282 kts | 345° |
| 2026-05-04 22:56 | 19.23023 | 72.75560 | 9156 ft | 285 kts | 345° |
| 2026-05-04 22:57 | 19.24969 | 72.75114 | 9967 ft | 288 kts | 346° |
| 2026-05-04 22:57 | 19.26992 | 72.74649 | 10341 ft | 309 kts | 346° |
| 2026-05-04 22:57 | 19.29194 | 72.74258 | 10547 ft | 333 kts | 353° |
| 2026-05-04 22:57 | 19.31560 | 72.74216 | 11034 ft | 345 kts | 1° |
| 2026-05-04 22:58 | 19.33812 | 72.74505 | 11724 ft | 349 kts | 7° |
| 2026-05-04 22:58 | 19.36226 | 72.74889 | 12418 ft | 353 kts | 6° |
| 2026-05-04 22:58 | 19.38676 | 72.75264 | 13098 ft | 358 kts | 6° |
| 2026-05-04 22:58 | 19.41144 | 72.75638 | 13777 ft | 362 kts | 6° |
| 2026-05-04 22:59 | 19.43648 | 72.76018 | 14433 ft | 364 kts | 6° |
| 2026-05-04 22:59 | 19.46161 | 72.76402 | 15088 ft | 366 kts | 6° |
| 2026-05-04 22:59 | 19.48691 | 72.76789 | 15741 ft | 369 kts | 6° |
| 2026-05-04 22:59 | 19.51242 | 72.77180 | 16390 ft | 371 kts | 7° |
| 2026-05-04 23:00 | 19.53807 | 72.77574 | 17026 ft | 374 kts | 7° |
| 2026-05-04 23:00 | 19.56363 | 72.77967 | 17658 ft | 377 kts | 7° |
| 2026-05-04 23:00 | 19.58997 | 72.78371 | 18270 ft | 379 kts | 7° |
| 2026-05-04 23:00 | 19.61628 | 72.78776 | 18767 ft | 384 kts | 6° |
| 2026-05-04 23:01 | 19.64251 | 72.79180 | 19243 ft | 388 kts | 6° |
| 2026-05-04 23:01 | 19.66940 | 72.79595 | 19746 ft | 392 kts | 6° |
| 2026-05-04 23:01 | 19.69684 | 72.80017 | 20244 ft | 396 kts | 6° |
| 2026-05-04 23:01 | 19.72395 | 72.80435 | 20736 ft | 401 kts | 6° |
| 2026-05-04 23:02 | 19.75172 | 72.80863 | 21214 ft | 405 kts | 5° |
| 2026-05-04 23:02 | 19.78006 | 72.81300 | 21707 ft | 409 kts | 5° |
| 2026-05-04 23:02 | 19.80838 | 72.81737 | 22185 ft | 413 kts | 5° |
| 2026-05-04 23:02 | 19.83690 | 72.82179 | 22662 ft | 417 kts | 5° |
| 2026-05-04 23:03 | 19.86581 | 72.82626 | 23137 ft | 421 kts | 5° |
| 2026-05-04 23:03 | 19.89450 | 72.83070 | 23552 ft | 425 kts | 5° |
| 2026-05-04 23:03 | 19.92430 | 72.83531 | 23989 ft | 427 kts | 5° |
| 2026-05-04 23:03 | 19.95378 | 72.83988 | 24401 ft | 430 kts | 4° |
| 2026-05-04 23:04 | 19.98344 | 72.84447 | 24787 ft | 433 kts | 4° |
| 2026-05-04 23:04 | 20.01293 | 72.84903 | 25189 ft | 435 kts | 4° |
| 2026-05-04 23:04 | 20.04330 | 72.85373 | 25581 ft | 437 kts | 4° |
| 2026-05-04 23:04 | 20.07353 | 72.85841 | 25948 ft | 440 kts | 4° |
| 2026-05-04 23:05 | 20.10354 | 72.86292 | 26283 ft | 442 kts | 3° |
| 2026-05-04 23:05 | 20.13411 | 72.86689 | 26645 ft | 444 kts | 2° |
| 2026-05-04 23:05 | 20.16489 | 72.87065 | 26977 ft | 446 kts | 2° |
| 2026-05-04 23:05 | 20.19579 | 72.87444 | 27306 ft | 449 kts | 2° |
| 2026-05-04 23:06 | 20.22688 | 72.87832 | 27645 ft | 451 kts | 2° |
| 2026-05-04 23:06 | 20.25810 | 72.88226 | 27942 ft | 453 kts | 2° |
| 2026-05-04 23:06 | 20.28995 | 72.88631 | 28238 ft | 456 kts | 2° |
| 2026-05-04 23:06 | 20.32112 | 72.89030 | 28513 ft | 458 kts | 2° |
| 2026-05-04 23:07 | 20.35284 | 72.89436 | 28821 ft | 460 kts | 2° |
| 2026-05-04 23:07 | 20.38472 | 72.89844 | 29072 ft | 463 kts | 2° |
| 2026-05-04 23:07 | 20.41681 | 72.90255 | 29330 ft | 465 kts | 2° |
| 2026-05-04 23:07 | 20.44898 | 72.90668 | 29604 ft | 467 kts | 2° |
| 2026-05-04 23:08 | 20.48127 | 72.91081 | 29858 ft | 469 kts | 2° |
| 2026-05-04 23:08 | 20.51375 | 72.91498 | 30110 ft | 471 kts | 2° |
| 2026-05-04 23:08 | 20.54634 | 72.91917 | 30357 ft | 472 kts | 2° |
| 2026-05-04 23:08 | 20.57898 | 72.92336 | 30616 ft | 473 kts | 2° |
| 2026-05-04 23:09 | 20.61168 | 72.92756 | 30880 ft | 474 kts | 2° |
| 2026-05-04 23:09 | 20.64436 | 72.93176 | 31172 ft | 474 kts | 2° |
| 2026-05-04 23:09 | 20.67714 | 72.93597 | 31512 ft | 473 kts | 2° |
| 2026-05-04 23:09 | 20.70963 | 72.94015 | 31867 ft | 471 kts | 2° |
| 2026-05-04 23:10 | 20.74217 | 72.94433 | 32220 ft | 469 kts | 2° |
| 2026-05-04 23:10 | 20.77451 | 72.94708 | 32541 ft | 465 kts | 357° |
| 2026-05-04 23:10 | 20.80681 | 72.94812 | 32863 ft | 464 kts | 358° |
| 2026-05-04 23:10 | 20.83903 | 72.94927 | 33185 ft | 462 kts | 358° |
| 2026-05-04 23:11 | 20.87110 | 72.95045 | 33499 ft | 461 kts | 358° |
| 2026-05-04 23:11 | 20.90311 | 72.95164 | 33805 ft | 459 kts | 358° |
| 2026-05-04 23:11 | 20.93504 | 72.95282 | 34068 ft | 458 kts | 358° |
| 2026-05-04 23:11 | 20.96692 | 72.95399 | 34284 ft | 458 kts | 358° |
| 2026-05-04 23:12 | 20.99875 | 72.95515 | 34491 ft | 458 kts | 358° |
| 2026-05-04 23:12 | 21.03060 | 72.95632 | 34695 ft | 458 kts | 358° |
| 2026-05-04 23:12 | 21.06237 | 72.95749 | 34914 ft | 457 kts | 358° |
| 2026-05-04 23:12 | 21.09417 | 72.95866 | 35113 ft | 457 kts | 357° |
| 2026-05-04 23:13 | 21.12591 | 72.95982 | 35323 ft | 457 kts | 357° |
| 2026-05-04 23:13 | 21.15762 | 72.96099 | 35535 ft | 456 kts | 357° |
| 2026-05-04 23:13 | 21.18937 | 72.96216 | 35744 ft | 456 kts | 357° |
| 2026-05-04 23:13 | 21.22113 | 72.96360 | 35956 ft | 457 kts | 358° |
| 2026-05-04 23:14 | 21.25288 | 72.96530 | 36170 ft | 456 kts | 358° |
| 2026-05-04 23:14 | 21.28455 | 72.96704 | 36389 ft | 456 kts | 358° |
| 2026-05-04 23:14 | 21.31623 | 72.96875 | 36601 ft | 456 kts | 358° |
| 2026-05-04 23:14 | 21.34766 | 72.97042 | 36787 ft | 456 kts | 358° |
| 2026-05-04 23:15 | 21.41050 | 72.97370 | 36810 ft | 454 kts | 358° |
| 2026-05-04 23:15 | 21.47356 | 72.97697 | 36807 ft | 454 kts | 358° |
| 2026-05-04 23:16 | 21.53673 | 72.98025 | 36811 ft | 454 kts | 358° |
| 2026-05-04 23:16 | 21.59973 | 72.98893 | 36806 ft | 461 kts | 7° |
| 2026-05-04 23:17 | 21.66178 | 73.00798 | 36809 ft | 464 kts | 12° |
| 2026-05-04 23:17 | 21.72361 | 73.02790 | 36808 ft | 464 kts | 11° |
| 2026-05-04 23:18 | 21.78563 | 73.04791 | 36810 ft | 465 kts | 11° |
| 2026-05-04 23:18 | 21.84670 | 73.06768 | 36808 ft | 465 kts | 11° |
| 2026-05-04 23:19 | 21.90859 | 73.08776 | 36809 ft | 465 kts | 11° |
| 2026-05-04 23:19 | 21.97054 | 73.10788 | 36804 ft | 465 kts | 11° |
| 2026-05-04 23:20 | 22.03255 | 73.12803 | 36807 ft | 465 kts | 11° |
| 2026-05-04 23:20 | 22.09456 | 73.14819 | 36806 ft | 465 kts | 11° |
| 2026-05-04 23:21 | 22.15652 | 73.16837 | 36806 ft | 465 kts | 11° |
| 2026-05-04 23:21 | 22.21838 | 73.18853 | 36804 ft | 465 kts | 11° |
| 2026-05-04 23:22 | 22.28044 | 73.20877 | 36804 ft | 465 kts | 11° |
| 2026-05-04 23:22 | 22.34230 | 73.22894 | 36805 ft | 465 kts | 11° |
| 2026-05-04 23:23 | 22.40467 | 73.24705 | 36807 ft | 463 kts | 8° |
| 2026-05-04 23:23 | 22.46695 | 73.26451 | 36801 ft | 463 kts | 9° |
| 2026-05-04 23:24 | 22.52928 | 73.28230 | 36808 ft | 463 kts | 9° |
| 2026-05-04 23:24 | 22.59151 | 73.30021 | 36808 ft | 463 kts | 9° |
| 2026-05-04 23:25 | 22.65381 | 73.31816 | 36814 ft | 463 kts | 9° |
| 2026-05-04 23:25 | 22.71554 | 73.33596 | 36815 ft | 463 kts | 9° |
| 2026-05-04 23:26 | 22.77773 | 73.35391 | 36744 ft | 463 kts | 9° |
| 2026-05-04 23:26 | 22.80885 | 73.36290 | 36506 ft | 462 kts | 9° |
| 2026-05-04 23:26 | 22.83991 | 73.37188 | 36265 ft | 462 kts | 9° |
| 2026-05-04 23:27 | 22.87092 | 73.38085 | 36028 ft | 462 kts | 9° |
| 2026-05-04 23:27 | 22.90198 | 73.38987 | 35797 ft | 462 kts | 9° |
| 2026-05-04 23:27 | 22.93303 | 73.39890 | 35570 ft | 463 kts | 9° |
| 2026-05-04 23:27 | 22.96416 | 73.40797 | 35338 ft | 463 kts | 9° |
| 2026-05-04 23:28 | 22.99525 | 73.41702 | 35109 ft | 463 kts | 9° |
| 2026-05-04 23:28 | 23.02637 | 73.42609 | 34885 ft | 463 kts | 9° |
| 2026-05-04 23:28 | 23.05752 | 73.43516 | 34660 ft | 464 kts | 9° |
| 2026-05-04 23:28 | 23.08866 | 73.44424 | 34437 ft | 464 kts | 9° |
| 2026-05-04 23:29 | 23.11988 | 73.45335 | 34217 ft | 464 kts | 9° |
| 2026-05-04 23:29 | 23.15100 | 73.46243 | 33998 ft | 464 kts | 9° |
| 2026-05-04 23:29 | 23.18228 | 73.47155 | 33772 ft | 465 kts | 9° |
| 2026-05-04 23:29 | 23.21307 | 73.48054 | 33257 ft | 467 kts | 9° |
| 2026-05-04 23:30 | 23.24465 | 73.48975 | 32423 ft | 472 kts | 9° |
| 2026-05-04 23:30 | 23.27664 | 73.49907 | 31438 ft | 478 kts | 9° |
| 2026-05-04 23:30 | 23.30907 | 73.50856 | 30825 ft | 475 kts | 9° |
| 2026-05-04 23:30 | 23.34059 | 73.51782 | 30210 ft | 473 kts | 9° |
| 2026-05-04 23:31 | 23.37224 | 73.52710 | 29519 ft | 471 kts | 10° |
| 2026-05-04 23:31 | 23.40368 | 73.53632 | 28934 ft | 465 kts | 10° |
| 2026-05-04 23:31 | 23.43473 | 73.54542 | 28325 ft | 460 kts | 10° |
| 2026-05-04 23:31 | 23.46555 | 73.55445 | 27689 ft | 456 kts | 10° |
| 2026-05-04 23:32 | 23.49597 | 73.56337 | 27052 ft | 453 kts | 10° |
| 2026-05-04 23:32 | 23.52633 | 73.57227 | 26453 ft | 449 kts | 10° |
| 2026-05-04 23:32 | 23.55639 | 73.58109 | 25851 ft | 446 kts | 10° |
| 2026-05-04 23:32 | 23.58623 | 73.58984 | 25252 ft | 443 kts | 11° |
| 2026-05-04 23:33 | 23.61584 | 73.59853 | 24630 ft | 440 kts | 11° |
| 2026-05-04 23:33 | 23.64528 | 73.60717 | 24051 ft | 437 kts | 11° |
| 2026-05-04 23:33 | 23.67460 | 73.61578 | 23418 ft | 435 kts | 11° |
| 2026-05-04 23:33 | 23.70375 | 73.62436 | 22804 ft | 431 kts | 11° |
| 2026-05-04 23:34 | 23.73254 | 73.63283 | 22204 ft | 426 kts | 11° |
| 2026-05-04 23:34 | 23.76103 | 73.64122 | 21619 ft | 421 kts | 12° |
| 2026-05-04 23:34 | 23.78915 | 73.64951 | 21025 ft | 417 kts | 12° |
| 2026-05-04 23:34 | 23.81699 | 73.65771 | 20400 ft | 414 kts | 12° |
| 2026-05-04 23:35 | 23.84468 | 73.66587 | 19866 ft | 409 kts | 12° |
| 2026-05-04 23:35 | 23.87210 | 73.67395 | 19287 ft | 406 kts | 12° |
| 2026-05-04 23:35 | 23.89928 | 73.68197 | 18700 ft | 404 kts | 12° |
| 2026-05-04 23:35 | 23.92633 | 73.68996 | 18117 ft | 401 kts | 13° |
| 2026-05-04 23:36 | 23.95310 | 73.69787 | 17560 ft | 396 kts | 13° |
| 2026-05-04 23:36 | 23.97951 | 73.70568 | 17011 ft | 391 kts | 13° |
| 2026-05-04 23:36 | 23.99688 | 73.71082 | 16652 ft | 388 kts | 13° |
| 2026-05-04 23:36 | 24.03162 | 73.72110 | 15907 ft | 384 kts | 13° |
| 2026-05-04 23:37 | 24.04859 | 73.72611 | 15579 ft | 381 kts | 13° |
| 2026-05-04 23:37 | 24.07414 | 73.73364 | 15031 ft | 379 kts | 13° |
| 2026-05-04 23:37 | 24.09947 | 73.74110 | 14492 ft | 376 kts | 13° |
| 2026-05-04 23:37 | 24.12466 | 73.74852 | 13998 ft | 373 kts | 13° |
| 2026-05-04 23:38 | 24.14963 | 73.75591 | 13486 ft | 370 kts | 12° |
| 2026-05-04 23:38 | 24.17422 | 73.76319 | 13052 ft | 364 kts | 12° |
| 2026-05-04 23:38 | 24.19857 | 73.77039 | 12560 ft | 360 kts | 12° |
| 2026-05-04 23:38 | 24.22213 | 73.77734 | 12086 ft | 356 kts | 12° |
| 2026-05-04 23:39 | 24.24597 | 73.78439 | 11579 ft | 353 kts | 12° |
| 2026-05-04 23:39 | 24.26961 | 73.79138 | 11102 ft | 350 kts | 12° |
| 2026-05-04 23:39 | 24.29300 | 73.79830 | 10610 ft | 347 kts | 12° |
| 2026-05-04 23:39 | 24.31627 | 73.80518 | 10237 ft | 341 kts | 13° |
| 2026-05-04 23:40 | 24.33867 | 73.81184 | 10070 ft | 324 kts | 12° |
| 2026-05-04 23:40 | 24.35958 | 73.81806 | 9845 ft | 308 kts | 12° |
| 2026-05-04 23:40 | 24.37995 | 73.82416 | 9339 ft | 301 kts | 14° |
| 2026-05-04 23:40 | 24.39800 | 73.83511 | 9003 ft | 293 kts | 41° |
| 2026-05-04 23:41 | 24.40956 | 73.85279 | 8722 ft | 283 kts | 68° |
| 2026-05-04 23:41 | 24.41576 | 73.87325 | 8445 ft | 294 kts | 75° |
| 2026-05-04 23:41 | 24.42032 | 73.89601 | 8158 ft | 308 kts | 80° |
| 2026-05-04 23:41 | 24.42344 | 73.91913 | 7872 ft | 304 kts | 81° |
| 2026-05-04 23:42 | 24.42662 | 73.94189 | 7585 ft | 300 kts | 82° |
| 2026-05-04 23:42 | 24.42959 | 73.96449 | 7299 ft | 300 kts | 82° |
| 2026-05-04 23:42 | 24.43259 | 73.98713 | 7017 ft | 298 kts | 82° |
| 2026-05-04 23:42 | 24.43557 | 74.00950 | 6743 ft | 295 kts | 82° |
| 2026-05-04 23:43 | 24.43856 | 74.03187 | 6465 ft | 297 kts | 82° |
| 2026-05-04 23:43 | 24.44158 | 74.05422 | 6185 ft | 293 kts | 82° |
| 2026-05-04 23:43 | 24.44460 | 74.07617 | 5889 ft | 289 kts | 81° |
| 2026-05-04 23:43 | 24.45147 | 74.09649 | 5586 ft | 284 kts | 55° |
| 2026-05-04 23:44 | 24.46549 | 74.11114 | 5305 ft | 278 kts | 28° |
| 2026-05-04 23:44 | 24.48357 | 74.11711 | 5020 ft | 270 kts | 1° |
| 2026-05-04 23:44 | 24.50223 | 74.11682 | 4742 ft | 266 kts | 356° |
| 2026-05-04 23:44 | 24.52066 | 74.11606 | 4450 ft | 264 kts | 356° |
| 2026-05-04 23:45 | 24.53895 | 74.11486 | 4154 ft | 262 kts | 355° |
| 2026-05-04 23:45 | 24.55682 | 74.11354 | 4003 ft | 251 kts | 356° |
| 2026-05-04 23:45 | 24.57373 | 74.11220 | 3976 ft | 236 kts | 355° |
| 2026-05-04 23:45 | 24.58949 | 74.11095 | 3976 ft | 219 kts | 355° |
| 2026-05-04 23:46 | 24.60416 | 74.10979 | 3969 ft | 204 kts | 355° |
| 2026-05-04 23:46 | 24.61856 | 74.10860 | 3974 ft | 208 kts | 354° |
| 2026-05-04 23:46 | 24.63180 | 74.10328 | 4015 ft | 204 kts | 320° |
| 2026-05-04 23:46 | 24.63939 | 74.09059 | 3984 ft | 199 kts | 283° |
| 2026-05-04 23:47 | 24.64096 | 74.07568 | 3977 ft | 196 kts | 265° |
| 2026-05-04 23:47 | 24.63973 | 74.06077 | 3976 ft | 194 kts | 259° |
| 2026-05-04 23:47 | 24.63785 | 74.04717 | 3967 ft | 166 kts | 258° |
| 2026-05-04 23:47 | 24.63623 | 74.03511 | 3869 ft | 160 kts | 257° |
| 2026-05-04 23:48 | 24.63459 | 74.02303 | 3671 ft | 159 kts | 258° |
| 2026-05-04 23:48 | 24.63298 | 74.01100 | 3470 ft | 160 kts | 257° |
| 2026-05-04 23:48 | 24.63135 | 73.99891 | 3273 ft | 160 kts | 257° |
| 2026-05-04 23:48 | 24.62971 | 73.98672 | 3067 ft | 162 kts | 258° |
| 2026-05-04 23:49 | 24.62808 | 73.97453 | 2864 ft | 160 kts | 258° |
| 2026-05-04 23:49 | 24.62644 | 73.96242 | 2658 ft | 160 kts | 258° |
| 2026-05-04 23:49 | 24.62483 | 73.95042 | 2457 ft | 158 kts | 259° |
| 2026-05-04 23:49 | 24.62326 | 73.93873 | 2259 ft | 155 kts | 259° |
| 2026-05-04 23:50 | 24.62168 | 73.92696 | 2060 ft | 154 kts | 260° |
| 2026-05-04 23:50 | 24.62028 | 73.91537 | 1870 ft | 152 kts | 259° |
| 2026-05-04 23:50 | 24.61866 | 73.90400 | 1683 ft | 149 kts | 260° |
| 2026-05-04 23:50 | 24.61739 | 73.89483 | 1683 ft | 78 kts | 262° |
| 2026-05-04 23:51 | 24.61700 | 73.89201 | 1689 ft | 14 kts | 262° |
| 2026-05-04 23:51 | 24.61738 | 73.89156 | 1690 ft | 9 kts | 348° |
| 2026-05-04 23:51 | 24.61786 | 73.89138 | 1686 ft | 5 kts | 313° |
| 2026-05-04 23:51 | 24.61790 | 73.89100 | 1690 ft | 5 kts | 264° |
| 2026-05-04 23:52 | 24.61795 | 73.89061 | 1690 ft | 1 kts | 320° |
| 2026-05-04 23:52 | 24.61810 | 73.89060 | 1687 ft | 4 kts | 351° |
| 2026-05-04 23:52 | 24.61834 | 73.89056 | 1691 ft | 4 kts | 351° |
| 2026-05-04 23:52 | 24.61861 | 73.89051 | 1687 ft | 4 kts | 350° |
| 2026-05-04 23:53 | 24.61881 | 73.89046 | 1687 ft | 2 kts | 349° |
| 2026-05-04 23:53 | 24.61894 | 73.89043 | 1688 ft | 1 kts | 349° |
| 2026-05-04 23:53 | 24.61899 | 73.89042 | 1687 ft | 1 kts | 349° |
| 2026-05-04 23:53 | 24.61906 | 73.89041 | 1690 ft | 2 kts | 348° |
| 2026-05-04 23:54 | 24.61914 | 73.89039 | 1688 ft | 0 kts | 349° |